Time;durP1;ratioP1;P1;durP2;ratioP2;P2;SDS_P1;SDS_P2;PMS_P1;PMS_P2;Temp;Humidity;BMP_temperature;BMP_pressure;BME280_temperature;BME280_humidity;BME280_pressure;Samples;Min_cycle;Max_cycle;Signal;HPM_P1;HPM_P2
2021/08/20 00:00:56;;;;;;;11.70;8.05;;;14.40;99.90;;;;;;5123437;27;19919;-66
2021/08/20 00:03:22;;;;;;;;;;;14.50;99.90;;;;;;5124230;27;20134;-64
2021/08/20 00:05:47;;;;;;;14.48;8.57;;;14.40;99.90;;;;;;5124577;28;20387;-66
2021/08/20 00:08:13;;;;;;;;;;;14.40;99.90;;;;;;5124653;28;20605;-65
2021/08/20 00:10:38;;;;;;;10.05;6.55;;;14.40;99.90;;;;;;5125137;28;19922;-64
2021/08/20 00:13:04;;;;;;;;;;;14.50;99.90;;;;;;5125242;28;20039;-66
2021/08/20 00:15:32;;;;;;;10.23;7.25;;;14.40;99.90;;;;;;5124257;27;20271;-66
2021/08/20 00:17:58;;;;;;;14.05;7.78;;;14.30;99.90;;;;;;5115675;27;20644;-66
2021/08/20 00:20:24;;;;;;;11.10;6.80;;;14.30;99.90;;;;;;5109653;28;20122;-66
2021/08/20 00:22:50;;;;;;;12.48;7.22;;;14.40;99.90;;;;;;5111322;28;20495;-65
2021/08/20 00:25:15;;;;;;;;;;;14.40;99.90;;;;;;5111975;28;20040;-65
2021/08/20 00:27:41;;;;;;;10.45;7.95;;;14.40;99.90;;;;;;5110346;28;19923;-64
2021/08/20 00:30:08;;;;;;;;;;;14.40;99.90;;;;;;5109820;27;20036;-64
2021/08/20 00:32:35;;;;;;;12.30;7.85;;;14.40;99.90;;;;;;5089475;28;19939;-64
2021/08/20 00:35:01;;;;;;;14.52;8.68;;;14.50;99.90;;;;;;5089976;28;20109;-65
2021/08/20 00:37:26;;;;;;;;;;;14.40;99.90;;;;;;5089983;28;20052;-63
2021/08/20 00:39:52;;;;;;;13.07;8.05;;;14.40;99.90;;;;;;5089547;28;19923;-66
2021/08/20 00:42:17;;;;;;;;;;;14.30;99.90;;;;;;5090560;28;20043;-63
2021/08/20 00:44:43;;;;;;;13.98;7.28;;;14.30;99.90;;;;;;5089812;28;19922;-65
2021/08/20 00:47:08;;;;;;;;;;;14.40;99.90;;;;;;5090455;28;20074;-66
2021/08/20 00:49:34;;;;;;;12.57;7.22;;;14.40;99.90;;;;;;5085769;28;19920;-63
2021/08/20 00:52:00;;;;;;;;;;;14.40;99.90;;;;;;5090259;28;20044;-64
2021/08/20 00:54:26;;;;;;;14.35;8.13;;;14.40;99.90;;;;;;5089518;28;20025;-64
2021/08/20 00:56:51;;;;;;;;;;;14.40;99.90;;;;;;5089650;28;20044;-64
2021/08/20 00:59:17;;;;;;;13.82;7.20;;;14.40;99.90;;;;;;5088715;28;19923;-64
2021/08/20 01:01:43;;;;;;;;;;;14.40;99.90;;;;;;5085974;28;20047;-63
2021/08/20 01:04:09;;;;;;;11.20;6.30;;;14.40;99.90;;;;;;5088692;28;19917;-65
2021/08/20 01:06:39;;;;;;;13.75;7.57;;;14.40;99.90;;;;;;5089173;28;20086;-64
2021/08/20 01:09:06;;;;;;;15.85;8.45;;;14.40;99.90;;;;;;5088465;28;20568;-63
2021/08/20 01:11:32;;;;;;;11.65;8.02;;;14.30;99.90;;;;;;5089616;28;20043;-63
2021/08/20 01:13:57;;;;;;;12.93;8.00;;;14.30;99.90;;;;;;5089410;28;20054;-63
2021/08/20 01:16:23;;;;;;;;;;;14.40;99.90;;;;;;5088679;28;20036;-63
2021/08/20 01:18:48;;;;;;;12.13;8.38;;;14.30;99.90;;;;;;5087824;28;20018;-63
2021/08/20 01:21:19;;;;;;;;;;;14.30;99.90;;;;;;5068873;28;20033;-63
2021/08/20 01:23:45;;;;;;;;;;;14.30;99.90;;;;;;5069534;28;20310;-63
2021/08/20 01:26:11;;;;;;;;;;;14.40;99.90;;;;;;5068576;28;19921;-63
2021/08/20 01:28:37;;;;;;;;;;;14.30;99.90;;;;;;5068479;28;19916;-63
2021/08/20 01:31:06;;;;;;;;;;;14.40;99.90;;;;;;5079317;28;19923;-63
2021/08/20 01:33:32;;;;;;;;;;;14.40;99.90;;;;;;5089940;28;19923;-63
2021/08/20 01:35:58;;;;;;;;;;;14.40;99.90;;;;;;5088834;28;19916;-63
2021/08/20 01:38:24;;;;;;;;;;;14.40;99.90;;;;;;5088101;28;19927;-63
2021/08/20 01:40:49;;;;;;;;;;;14.40;99.90;;;;;;5089102;28;19920;-62
2021/08/20 01:43:15;;;;;;;;;;;14.40;99.90;;;;;;5087268;28;19916;-63
2021/08/20 01:45:42;;;;;;;;;;;14.40;99.90;;;;;;5088248;28;20488;-63
2021/08/20 01:48:08;;;;;;;;;;;14.40;99.90;;;;;;5088439;28;19916;-63
2021/08/20 01:50:34;;;;;;;;;;;14.40;99.90;;;;;;5088181;28;19994;-63
2021/08/20 01:53:00;;;;;;;;;;;14.40;99.90;;;;;;5088974;28;20488;-63
2021/08/20 01:55:25;;;;;;;;;;;14.40;99.90;;;;;;5088557;28;19960;-63
2021/08/20 01:57:51;;;;;;;;;;;14.40;99.90;;;;;;5080045;28;19923;-63
2021/08/20 02:00:17;;;;;;;;;;;14.40;99.90;;;;;;5085967;28;19986;-63
2021/08/20 02:02:42;;;;;;;;;;;14.40;99.90;;;;;;5088822;28;19928;-63
2021/08/20 02:05:08;;;;;;;;;;;14.40;99.90;;;;;;5088592;28;20023;-63
2021/08/20 02:07:36;;;;;;;;;;;14.40;99.90;;;;;;5087916;28;19950;-63
2021/08/20 02:10:05;;;;;;;;;;;14.40;99.90;;;;;;5087974;28;19919;-63
2021/08/20 02:12:31;;;;;;;;;;;14.40;99.90;;;;;;5088155;28;20003;-63
2021/08/20 02:14:57;;;;;;;;;;;14.40;99.90;;;;;;5087674;28;20027;-63
2021/08/20 02:17:22;;;;;;;;;;;14.40;99.90;;;;;;5087441;28;20500;-61
2021/08/20 02:19:48;;;;;;;;;;;14.50;99.90;;;;;;5087282;28;19916;-63
2021/08/20 02:22:13;;;;;;;;;;;14.40;99.90;;;;;;5087186;28;20753;-63
2021/08/20 02:24:39;;;;;;;;;;;14.40;99.90;;;;;;5088192;28;20341;-63
2021/08/20 02:27:04;;;;;;;;;;;14.40;99.90;;;;;;5086755;28;20605;-63
2021/08/20 02:29:30;;;;;;;;;;;14.40;99.90;;;;;;5087150;28;20437;-64
2021/08/20 02:31:55;;;;;;;;;;;14.30;99.90;;;;;;5086397;28;19919;-63
2021/08/20 02:34:21;;;;;;;;;;;14.30;99.90;;;;;;5088301;28;19955;-62
2021/08/20 02:36:46;;;;;;;;;;;14.30;99.90;;;;;;5086938;28;20290;-62
2021/08/20 02:39:12;;;;;;;;;;;14.30;99.90;;;;;;5087522;28;19915;-63
2021/08/20 02:41:37;;;;;;;;;;;14.30;99.90;;;;;;5087587;28;20355;-64
2021/08/20 02:44:02;;;;;;;;;;;14.30;99.90;;;;;;5087743;28;19967;-63
2021/08/20 02:46:28;;;;;;;;;;;14.40;99.90;;;;;;5086899;28;19973;-63
2021/08/20 02:48:53;;;;;;;;;;;14.30;99.90;;;;;;5070400;28;19989;-63
2021/08/20 02:51:19;;;;;;;;;;;14.40;99.90;;;;;;5066516;28;19924;-63
2021/08/20 02:53:46;;;;;;;;;;;14.40;99.90;;;;;;5067878;28;19916;-62
2021/08/20 02:56:11;;;;;;;;;;;14.40;99.90;;;;;;5067403;28;19950;-61
2021/08/20 02:58:36;;;;;;;;;;;14.40;99.90;;;;;;5067725;28;20391;-63
2021/08/20 03:01:02;;;;;;;;;;;14.40;99.90;;;;;;5077300;28;19919;-62
2021/08/20 03:03:28;;;;;;;;;;;14.40;99.90;;;;;;5087901;28;19916;-60
2021/08/20 03:05:53;;;;;;;;;;;14.40;99.90;;;;;;5086858;28;19927;-63
2021/08/20 03:08:19;;;;;;;;;;;14.40;99.90;;;;;;5087083;28;19920;-63
2021/08/20 03:10:45;;;;;;;;;;;14.40;99.90;;;;;;5086433;28;19916;-63
2021/08/20 03:13:10;;;;;;;;;;;14.30;99.90;;;;;;5066963;28;19927;-63
2021/08/20 03:15:36;;;;;;;;;;;14.30;99.90;;;;;;5066958;28;19944;-63
2021/08/20 03:18:01;;;;;;;;;;;14.30;99.90;;;;;;5077865;28;20661;-63
2021/08/20 03:20:27;;;;;;;;;;;14.30;99.90;;;;;;5087171;28;20419;-63
2021/08/20 03:22:53;;;;;;;;;;;14.40;99.90;;;;;;5087634;28;19915;-63
2021/08/20 03:25:19;;;;;;;;;;;14.40;99.90;;;;;;5087233;28;20017;-63
2021/08/20 03:27:44;;;;;;;;;;;14.30;99.90;;;;;;5087194;28;19920;-62
2021/08/20 03:30:10;;;;;;;;;;;14.30;99.90;;;;;;5085369;28;19970;-62
2021/08/20 03:32:36;;;;;;;;;;;14.30;99.90;;;;;;5087696;28;19916;-63
2021/08/20 03:35:01;;;;;;;;;;;14.30;99.90;;;;;;5081254;28;19923;-61
2021/08/20 03:37:27;;;;;;;;;;;14.30;99.90;;;;;;5087437;28;19927;-62
2021/08/20 03:39:52;;;;;;;;;;;14.30;99.90;;;;;;5086754;28;19916;-62
2021/08/20 03:42:18;;;;;;;;;;;14.30;99.90;;;;;;5087144;28;19969;-62
2021/08/20 03:44:44;;;;;;;;;;;14.30;99.90;;;;;;5087648;28;19998;-62
2021/08/20 03:47:10;;;;;;;;;;;14.40;99.90;;;;;;5086591;28;19994;-62
2021/08/20 03:49:35;;;;;;;;;;;14.40;99.90;;;;;;5087011;28;19923;-62
2021/08/20 03:52:01;;;;;;;;;;;14.30;99.90;;;;;;5087353;28;19920;-62
2021/08/20 03:54:26;;;;;;;;;;;14.40;99.90;;;;;;5091423;28;20391;-61
2021/08/20 03:56:52;;;;;;;;;;;14.40;99.90;;;;;;5090950;28;20450;-63
2021/08/20 03:59:18;;;;;;;;;;;14.40;99.90;;;;;;5071001;28;19999;-64
2021/08/20 04:01:43;;;;;;;;;;;14.40;99.90;;;;;;5087656;28;19923;-62
2021/08/20 04:04:09;;;;;;;;;;;14.30;99.90;;;;;;5090469;28;19963;-62
2021/08/20 04:06:37;;;;;;;;;;;14.30;99.90;;;;;;5090786;28;20441;-64
2021/08/20 04:09:02;;;;;;;;;;;14.30;99.90;;;;;;5090513;28;19970;-64
2021/08/20 04:11:28;;;;;;;;;;;14.30;99.90;;;;;;5090745;28;19979;-64
2021/08/20 04:13:54;;;;;;;;;;;14.30;99.90;;;;;;5091761;28;19999;-65
2021/08/20 04:16:20;;;;;;;;;;;14.30;99.90;;;;;;5089873;28;19978;-65
2021/08/20 04:18:46;;;;;;;;;;;14.30;99.90;;;;;;5090698;28;19920;-61
2021/08/20 04:21:11;;;;;;;;;;;14.30;99.90;;;;;;5090578;28;20297;-64
2021/08/20 04:23:37;;;;;;;;;;;14.30;99.90;;;;;;5090558;28;19916;-63
2021/08/20 04:26:02;;;;;;;;;;;14.30;99.90;;;;;;5090451;28;19920;-63
2021/08/20 04:28:28;;;;;;;;;;;14.30;99.90;;;;;;5089872;28;19923;-64
2021/08/20 04:30:53;;;;;;;;;;;14.20;99.90;;;;;;5089490;28;19916;-62
2021/08/20 04:33:19;;;;;;;;;;;14.20;99.90;;;;;;5090051;28;19973;-64
2021/08/20 04:35:44;;;;;;;;;;;14.20;99.90;;;;;;5089962;28;19916;-65
2021/08/20 04:38:10;;;;;;;;;;;14.20;99.90;;;;;;5090017;28;19961;-65
2021/08/20 04:40:35;;;;;;;;;;;14.20;99.90;;;;;;5090353;28;19916;-63
2021/08/20 04:43:01;;;;;;;;;;;14.20;99.90;;;;;;5089719;28;19983;-61
2021/08/20 04:45:27;;;;;;;;;;;14.20;99.90;;;;;;5088812;28;19920;-64
2021/08/20 04:47:52;;;;;;;;;;;14.30;99.90;;;;;;5088397;28;19961;-64
2021/08/20 04:50:18;;;;;;;;;;;14.20;99.90;;;;;;5082964;28;20094;-64
2021/08/20 04:52:44;;;;;;;;;;;14.30;99.90;;;;;;5086586;28;19916;-66
2021/08/20 04:55:10;;;;;;;;;;;14.20;99.90;;;;;;5090552;28;20384;-64
2021/08/20 04:57:35;;;;;;;;;;;14.10;99.90;;;;;;5089868;28;19968;-65
2021/08/20 05:00:01;;;;;;;;;;;14.10;99.90;;;;;;5088568;28;19920;-65
2021/08/20 05:02:30;;;;;;;;;;;14.10;99.90;;;;;;5089392;28;19920;-64
2021/08/20 05:04:56;;;;;;;;;;;14.10;99.90;;;;;;5090029;28;20131;-64
2021/08/20 05:07:21;;;;;;;;;;;14.20;99.90;;;;;;5089464;28;20364;-65
2021/08/20 05:09:47;;;;;;;;;;;14.20;99.90;;;;;;5089095;28;19983;-64
2021/08/20 05:12:12;;;;;;;;;;;14.20;99.90;;;;;;5090174;28;20311;-59
2021/08/20 05:14:38;;;;;;;;;;;14.10;99.90;;;;;;5089669;28;20052;-64
2021/08/20 05:17:03;;;;;;;;;;;14.10;99.90;;;;;;5088760;28;20032;-63
2021/08/20 05:19:29;;;;;;;;;;;14.10;99.90;;;;;;5088445;28;19946;-62
2021/08/20 05:21:54;;;;;;;;;;;14.20;99.90;;;;;;5090125;28;20290;-63
2021/08/20 05:24:20;;;;;;;;;;;14.20;99.90;;;;;;5090285;28;20355;-64
2021/08/20 05:26:45;;;;;;;;;;;14.20;99.90;;;;;;5089113;28;19924;-64
2021/08/20 05:29:11;;;;;;;;;;;14.20;99.90;;;;;;5089150;28;19916;-63
2021/08/20 05:31:36;;;;;;;;;;;14.30;99.90;;;;;;5087778;28;19916;-63
2021/08/20 05:34:02;;;;;;;;;;;14.20;99.90;;;;;;5088932;28;20011;-63
2021/08/20 05:36:27;;;;;;;;;;;14.20;99.90;;;;;;5088335;28;19916;-60
2021/08/20 05:38:53;;;;;;;;;;;14.20;99.90;;;;;;5088236;28;19916;-67
2021/08/20 05:41:19;;;;;;;;;;;14.20;99.90;;;;;;5089236;28;20496;-65
2021/08/20 05:43:44;;;;;;;;;;;14.20;99.90;;;;;;5087796;28;19920;-62
2021/08/20 05:46:10;;;;;;;;;;;14.10;99.90;;;;;;5087872;28;19924;-60
2021/08/20 05:48:35;;;;;;;;;;;14.20;99.90;;;;;;5088316;28;19920;-64
2021/08/20 05:51:01;;;;;;;;;;;14.10;99.90;;;;;;5088633;28;20307;-63
2021/08/20 05:53:26;;;;;;;;;;;14.10;99.90;;;;;;5088433;28;19920;-63
2021/08/20 05:55:52;;;;;;;;;;;14.20;99.90;;;;;;5088137;28;20371;-62
2021/08/20 05:58:17;;;;;;;;;;;14.20;99.90;;;;;;5074972;28;19916;-63
2021/08/20 06:00:43;;;;;;;;;;;14.20;99.90;;;;;;5073298;28;19943;-61
2021/08/20 06:03:08;;;;;;;;;;;14.10;99.90;;;;;;5089579;28;19927;-66
2021/08/20 06:05:34;;;;;;;;;;;14.10;99.90;;;;;;5089931;28;19927;-66
2021/08/20 06:08:00;;;;;;;;;;;14.20;99.90;;;;;;5090183;28;19960;-65
2021/08/20 06:10:26;;;;;;;;;;;14.20;99.90;;;;;;5089100;28;19924;-65
2021/08/20 06:12:51;;;;;;;;;;;14.20;99.90;;;;;;5088423;28;19916;-64
2021/08/20 06:15:17;;;;;;;;;;;14.20;99.90;;;;;;5087754;28;19920;-66
2021/08/20 06:17:42;;;;;;;;;;;14.20;99.90;;;;;;5089530;28;20503;-65
2021/08/20 06:20:08;;;;;;;;;;;14.30;99.90;;;;;;5088397;28;19919;-65
2021/08/20 06:22:34;;;;;;;;;;;14.20;99.90;;;;;;5089921;28;19916;-65
2021/08/20 06:25:02;;;;;;;;;;;14.20;99.90;;;;;;5089119;28;20303;-65
2021/08/20 06:27:31;;;;;;;;;;;14.20;99.90;;;;;;5086899;28;19919;-62
2021/08/20 06:29:59;;;;;;;;;;;14.20;99.90;;;;;;5087194;28;19949;-64
2021/08/20 06:32:24;;;;;;;;;;;14.30;99.90;;;;;;5088664;28;19969;-64
2021/08/20 06:34:50;;;;;;;;;;;14.30;99.90;;;;;;5088777;28;19916;-63
2021/08/20 06:37:18;;;;;;;;;;;14.30;99.90;;;;;;5088034;28;19923;-64
2021/08/20 06:39:47;;;;;;;;;;;14.20;99.90;;;;;;5083801;28;20330;-66
2021/08/20 06:42:13;;;;;;;;;;;14.20;99.90;;;;;;5074169;28;20761;-66
2021/08/20 06:44:41;;;;;;;;;;;14.30;99.90;;;;;;5088390;28;19915;-67
2021/08/20 06:47:07;;;;;;;;;;;14.30;99.90;;;;;;5087252;28;20014;-66
2021/08/20 06:49:38;;;;;;;;;;;14.30;99.90;;;;;;5087594;28;20007;-67
2021/08/20 06:52:04;;;;;;;;;;;14.30;99.90;;;;;;5088197;28;20025;-67
2021/08/20 06:54:30;;;;;;;;;;;14.30;99.90;;;;;;5087282;28;20393;-66
2021/08/20 06:56:56;;;;;;;;;;;14.30;99.90;;;;;;5088336;28;20433;-66
2021/08/20 06:59:24;;;;;;;;;;;14.40;99.90;;;;;;5088496;28;19927;-68
2021/08/20 07:01:50;;;;;;;;;;;14.40;99.90;;;;;;5085281;28;19916;-67
2021/08/20 07:04:16;;;;;;;;;;;14.40;99.90;;;;;;5091664;28;19912;-66
2021/08/20 07:06:44;;;;;;;;;;;14.50;99.90;;;;;;5091611;28;19919;-65
2021/08/20 07:09:10;;;;;;;;;;;14.60;99.90;;;;;;5102997;28;19919;-65
2021/08/20 07:11:38;;;;;;;;;;;14.70;99.90;;;;;;5108254;28;19923;-65
2021/08/20 07:14:04;;;;;;;;;;;14.80;99.90;;;;;;5108704;28;19916;-67
2021/08/20 07:16:30;;;;;;;;;;;15.00;99.90;;;;;;5085964;28;19912;-65
2021/08/20 07:18:55;;;;;;;;;;;15.00;99.90;;;;;;5079852;28;19967;-64
2021/08/20 07:21:21;;;;;;;;;;;15.00;99.90;;;;;;5087482;28;19928;-67
2021/08/20 07:23:47;;;;;;;;;;;14.90;99.90;;;;;;5074365;28;19927;-64
2021/08/20 07:26:16;;;;;;;;;;;14.90;99.90;;;;;;5065502;28;19924;-65
2021/08/20 07:28:56;;;;;;;;;;;15.00;99.90;;;;;;5065930;28;20019;-67
2021/08/20 07:31:25;;;;;;;;;;;15.10;99.90;;;;;;5083501;28;20066;-67
2021/08/20 07:33:52;;;;;;;;;;;15.20;99.90;;;;;;5091815;28;19977;-67
2021/08/20 07:36:20;;;;;;;;;;;15.20;99.90;;;;;;5085808;28;20395;-66
2021/08/20 07:38:46;;;;;;;;;;;15.30;99.90;;;;;;5085978;28;19999;-67
2021/08/20 07:41:12;;;;;;;;;;;15.40;99.90;;;;;;5079367;28;19916;-66
2021/08/20 07:43:42;;;;;;;;;;;15.30;99.90;;;;;;5084044;28;19927;-66
2021/08/20 07:46:08;;;;;;;;;;;15.40;99.90;;;;;;5088928;28;19923;-65
2021/08/20 07:48:33;;;;;;;;;;;15.50;99.90;;;;;;5091439;28;19916;-66
2021/08/20 07:51:07;;;;;;;;;;;15.60;99.90;;;;;;5092216;28;20401;-67
2021/08/20 07:53:33;;;;;;;;;;;15.70;99.90;;;;;;5092418;28;19922;-68
2021/08/20 07:55:59;;;;;;;;;;;15.80;99.90;;;;;;5091558;28;20007;-66
2021/08/20 07:58:24;;;;;;;;;;;15.70;99.90;;;;;;5079273;28;20537;-67
2021/08/20 08:00:50;;;;;;;;;;;15.70;99.90;;;;;;5079896;28;19919;-67
2021/08/20 08:03:16;;;;;;;;;;;15.90;99.90;;;;;;5092287;28;20020;-65
2021/08/20 08:05:41;;;;;;;;;;;16.40;99.90;;;;;;5090967;28;19927;-67
2021/08/20 08:08:07;;;;;;;;;;;17.30;99.90;;;;;;5091973;28;19928;-65
2021/08/20 08:10:33;;;;;;;;;;;17.90;99.90;;;;;;5091700;28;19916;-67
2021/08/20 08:12:58;;;;;;;;;;;19.30;98.90;;;;;;5092112;28;19916;-63
2021/08/20 08:15:24;;;;;;;;;;;20.60;96.10;;;;;;5089883;28;19994;-64
2021/08/20 08:17:55;;;;;;;;;;;21.30;94.50;;;;;;5100698;28;19915;-63
2021/08/20 08:20:21;;;;;;;;;;;22.00;91.50;;;;;;5111169;28;19927;-64
2021/08/20 08:22:47;;;;;;;;;;;22.70;91.00;;;;;;5110963;28;19915;-64
2021/08/20 08:25:13;;;;;;;;;;;23.20;90.30;;;;;;5107468;28;20446;-64
2021/08/20 08:27:56;;;;;;;;;;;23.90;88.80;;;;;;5111607;28;20441;-64
2021/08/20 08:30:22;;;;;;;;;;;24.00;86.30;;;;;;5101882;28;19968;-64
2021/08/20 08:32:48;;;;;;;;;;;24.60;82.60;;;;;;5110367;28;19916;-65
2021/08/20 08:35:14;;;;;;;;;;;24.30;79.90;;;;;;5110783;28;19923;-66
2021/08/20 08:37:39;;;;;;;;;;;23.70;82.50;;;;;;5110989;28;19915;-66
2021/08/20 08:40:06;;;;;;;;;;;23.80;87.20;;;;;;5110543;28;20484;-64
2021/08/20 08:42:31;;;;;;;;;;;24.00;84.30;;;;;;5110402;28;19923;-64
2021/08/20 08:44:57;;;;;;;;;;;23.80;83.80;;;;;;5110960;28;19915;-64
2021/08/20 08:47:22;;;;;;;;;;;23.70;85.40;;;;;;5111973;28;19915;-65
2021/08/20 08:49:48;;;;;;;;;;;22.70;86.40;;;;;;5112923;28;19930;-63
2021/08/20 08:52:14;;;;;;;;;;;21.70;89.80;;;;;;5108550;27;20484;-65
2021/08/20 08:54:40;;;;;;;;;;;20.70;91.10;;;;;;5096227;28;19973;-63
2021/08/20 08:57:05;;;;;;;;;;;20.00;93.70;;;;;;5098742;28;19919;-64
2021/08/20 08:59:31;;;;;;;;;;;19.20;94.20;;;;;;5102810;28;20375;-65
2021/08/20 09:01:57;;;;;;;;;;;18.90;95.60;;;;;;5106337;28;19916;-64
2021/08/20 09:04:22;;;;;;;;;;;18.70;96.20;;;;;;5112528;28;20283;-66
2021/08/20 09:06:56;;;;;;;;;;;18.90;96.00;;;;;;5111030;28;19923;-64
2021/08/20 09:09:25;;;;;;;;;;;18.80;96.30;;;;;;5109501;28;19923;-64
2021/08/20 09:11:58;;;;;;;;;;;19.00;96.60;;;;;;5111393;28;20030;-64
2021/08/20 09:14:30;;;;;;;;;;;18.90;95.60;;;;;;5111929;28;19961;-64
2021/08/20 09:16:56;;;;;;;;;;;18.80;97.20;;;;;;5110402;28;19927;-66
2021/08/20 09:19:22;;;;;;;;;;;18.80;96.50;;;;;;5110873;28;20375;-65
2021/08/20 09:21:52;;;;;;;;;;;18.80;96.40;;;;;;5108982;28;19915;-67
2021/08/20 09:24:37;;;;;;;;;;;19.00;96.90;;;;;;5112258;28;19954;-64
2021/08/20 09:27:19;;;;;;;;;;;19.00;96.80;;;;;;5109124;28;19930;-64
2021/08/20 09:29:54;;;;;;;;;;;19.20;96.50;;;;;;5109378;28;19998;-63
2021/08/20 09:32:21;;;;;;;;;;;19.40;98.00;;;;;;5097927;28;19983;-64
2021/08/20 09:34:48;;;;;;;;;;;19.10;96.40;;;;;;5090674;28;20368;-64
2021/08/20 09:37:14;;;;;;;;;;;18.90;95.90;;;;;;5089318;28;19923;-65
2021/08/20 09:39:45;;;;;;;;;;;18.80;96.50;;;;;;5089883;28;20287;-67
2021/08/20 09:42:13;;;;;;;;;;;18.90;96.10;;;;;;5090255;28;19923;-69
2021/08/20 09:44:39;;;;;;;;;;;19.20;96.60;;;;;;5097111;28;19924;-66
2021/08/20 09:47:05;;;;;;;;;;;19.10;96.60;;;;;;5107618;28;20018;-65
2021/08/20 09:49:51;;;;;;;;;;;19.00;97.00;;;;;;5115832;28;19922;-66
2021/08/20 09:52:29;;;;;;;;;;;19.20;97.40;;;;;;5108821;28;19916;-65
2021/08/20 09:54:56;;;;;;;;;;;19.20;96.40;;;;;;5113638;28;19924;-67
2021/08/20 09:57:24;;;;;;;;;;;19.40;96.00;;;;;;5100870;28;19916;-69
2021/08/20 09:59:49;;;;;;;;;;;19.50;95.40;;;;;;5106405;28;20450;-65
2021/08/20 10:02:18;;;;;;;;;;;19.40;96.60;;;;;;5090596;28;20045;-66
2021/08/20 10:04:45;;;;;;;;;;;19.20;95.40;;;;;;5112347;28;19919;-67
2021/08/20 10:07:11;;;;;;;;;;;18.70;96.20;;;;;;5106975;28;20291;-62
2021/08/20 10:09:38;;;;;;;;;;;18.60;97.60;;;;;;5108877;28;19920;-64
2021/08/20 10:12:04;;;;;;;;;;;18.60;97.30;;;;;;5109320;28;19916;-62
2021/08/20 10:14:33;;;;;;;;;;;18.50;97.00;;;;;;5110695;28;19916;-64
2021/08/20 10:16:59;;;;;;;;;;;18.30;96.70;;;;;;5110169;28;19942;-65
2021/08/20 10:19:25;;;;;;;;;;;18.30;97.80;;;;;;5102211;27;20282;-66
2021/08/20 10:21:51;;;;;;;;;;;18.20;97.30;;;;;;5098653;28;19920;-63
2021/08/20 10:24:16;;;;;;;;;;;18.10;97.10;;;;;;5091254;28;20361;-63
2021/08/20 10:26:44;;;;;;;;;;;18.10;97.40;;;;;;5091039;28;19924;-64
2021/08/20 10:29:10;;;;;;;;;;;18.20;98.30;;;;;;5089879;28;19924;-64
2021/08/20 10:31:36;;;;;;;;;;;18.10;97.60;;;;;;5099460;27;19922;-66
2021/08/20 10:34:22;;;;;;;;;;;18.10;98.20;;;;;;5109672;28;19994;-64
2021/08/20 10:36:47;;;;;;;;;;;18.10;98.00;;;;;;5112617;28;19922;-64
2021/08/20 10:39:24;;;;;;;;;;;18.20;98.30;;;;;;5109478;28;20357;-65
2021/08/20 10:42:04;;;;;;;;;;;18.10;99.00;;;;;;5110814;28;19920;-62
2021/08/20 10:44:33;;;;;;;;;;;18.30;99.30;;;;;;5105713;28;19920;-63
2021/08/20 10:46:59;;;;;;;;;;;18.30;99.20;;;;;;5097281;28;19920;-63
2021/08/20 10:49:25;;;;;;;;;;;18.20;97.20;;;;;;5087705;28;19927;-64
2021/08/20 10:51:55;;;;;;;;;;;18.30;97.20;;;;;;5087725;28;19923;-64
2021/08/20 10:54:30;;;;;;;;;;;18.30;97.00;;;;;;5088271;28;20367;-63
2021/08/20 10:56:56;;;;;;;;;;;18.30;97.80;;;;;;5083105;28;19971;-66
2021/08/20 10:59:37;;;;;;;;;;;18.30;97.00;;;;;;5088027;28;20370;-65
2021/08/20 11:02:17;;;;;;;;;;;18.40;97.30;;;;;;5088156;23;20474;-64
2021/08/20 11:05:01;;;;;;;;;;;18.60;98.50;;;;;;5046875;28;19971;-64
2021/08/20 11:07:36;;;;;;;;;;;18.90;97.10;;;;;;5042248;28;19925;-63
2021/08/20 11:10:07;;;;;;;;;;;19.10;95.40;;;;;;5048420;28;19917;-63
2021/08/20 11:12:47;;;;;;;;;;;19.30;96.70;;;;;;5048813;28;19921;-63
2021/08/20 11:15:22;;;;;;;;;;;19.50;95.50;;;;;;5052240;28;19923;-63
2021/08/20 11:18:00;;;;;;;;;;;19.60;95.00;;;;;;5045526;28;19916;-64
2021/08/20 11:20:26;;;;;;;;;;;19.50;96.00;;;;;;5044822;28;19923;-63
2021/08/20 11:23:12;;;;;;;;;;;19.60;95.90;;;;;;5033443;28;19920;-63
2021/08/20 11:25:39;;;;;;;;;;;19.60;95.20;;;;;;5031489;28;19928;-63
2021/08/20 11:28:06;;;;;;;;;;;19.30;95.00;;;;;;5029406;28;20010;-62
2021/08/20 11:30:33;;;;;;;;;;;19.40;96.50;;;;;;5028678;28;19927;-63
2021/08/20 11:33:15;;;;;;;;;;;19.30;96.50;;;;;;5044244;28;19916;-64
2021/08/20 11:35:41;;;;;;;;;;;19.20;96.30;;;;;;5056772;28;20014;-63
2021/08/20 11:38:07;;;;;;;;;;;19.20;96.50;;;;;;5052406;28;20015;-62
2021/08/20 11:40:45;;;;;;;;;;;19.20;95.40;;;;;;5052097;28;19956;-63
2021/08/20 11:43:11;;;;;;;;;;;19.10;96.80;;;;;;5051445;28;20437;-63
2021/08/20 11:45:38;;;;;;;;;;;18.90;97.90;;;;;;5048822;28;20375;-63
2021/08/20 11:48:04;;;;;;;;;;;18.80;96.10;;;;;;5050291;28;20311;-63
2021/08/20 11:50:31;;;;;;;;;;;18.80;97.70;;;;;;5050580;28;20011;-63
2021/08/20 11:52:57;;;;;;;;;;;18.80;98.50;;;;;;5049485;28;20120;-63
2021/08/20 11:55:23;;;;;;;;;;;18.60;99.20;;;;;;5048894;28;19989;-63
2021/08/20 11:57:49;;;;;;;;;;;18.60;99.50;;;;;;5048194;28;19920;-63
2021/08/20 12:00:15;;;;;;;;;;;18.40;99.20;;;;;;5046492;28;20472;-64
2021/08/20 12:02:41;;;;;;;;;;;18.40;99.20;;;;;;5034736;28;19924;-63
2021/08/20 12:05:20;;;;;;;;;;;18.50;99.50;;;;;;5039474;28;20312;-63
2021/08/20 12:07:46;;;;;;;;;;;18.40;99.80;;;;;;5047704;28;19928;-63
2021/08/20 12:10:12;;;;;;;;;;;18.40;99.50;;;;;;5047056;28;20308;-62
2021/08/20 12:12:41;;;;;;;;;;;18.40;99.70;;;;;;5047658;28;19913;-63
2021/08/20 12:15:08;;;;;;;;;;;18.50;99.80;;;;;;5050805;28;19916;-63
2021/08/20 12:17:34;;;;;;;;;;;18.40;99.30;;;;;;5044474;28;20015;-63
2021/08/20 12:20:01;;;;;;;;;;;18.50;99.90;;;;;;5030925;28;20007;-64
2021/08/20 12:22:34;;;;;;;;;;;18.50;99.60;;;;;;5031226;28;19917;-63
2021/08/20 12:25:00;;;;;;;;;;;18.50;99.70;;;;;;5030990;28;19917;-64
2021/08/20 12:27:27;;;;;;;;;;;18.70;99.90;;;;;;5030778;28;19931;-63
2021/08/20 12:29:58;;;;;;;;;;;18.80;99.40;;;;;;5030577;28;19921;-63
2021/08/20 12:32:25;;;;;;;;;;;18.70;99.80;;;;;;5035743;28;20505;-63
2021/08/20 12:35:00;;;;;;;;;;;18.60;99.60;;;;;;5050635;28;20499;-63
2021/08/20 12:37:29;;;;;;;;;;;18.50;99.00;;;;;;5055790;28;20389;-62
2021/08/20 12:40:08;;;;;;;;;;;18.50;99.70;;;;;;5046111;28;19921;-64
2021/08/20 12:42:41;;;;;;;;;;;18.50;99.90;;;;;;5026348;28;19924;-63
2021/08/20 12:45:07;;;;;;;;;;;18.30;99.90;;;;;;5030891;28;19924;-63
2021/08/20 12:47:33;;;;;;;;;;;18.20;99.90;;;;;;5030193;28;19921;-64
2021/08/20 12:50:01;;;;;;;;;;;18.20;99.90;;;;;;5030825;28;20417;-63
2021/08/20 12:52:27;;;;;;;;;;;18.10;99.90;;;;;;5030714;28;19917;-63
2021/08/20 12:54:53;;;;;;;;;;;18.20;99.90;;;;;;5030360;28;19975;-63
2021/08/20 12:57:18;;;;;;;;;;;18.30;99.90;;;;;;5028537;28;19961;-63
2021/08/20 12:59:44;;;;;;;;;;;18.40;99.90;;;;;;5011685;28;20367;-63
2021/08/20 13:02:10;;;;;;;;;;;18.50;99.90;;;;;;5032008;28;20168;-64
2021/08/20 13:04:35;;;;;;;;;;;18.50;99.90;;;;;;5050708;28;20362;-63
2021/08/20 13:07:01;;;;;;;;;;;18.50;99.90;;;;;;5050298;28;20261;-62
2021/08/20 13:09:27;;;;;;;;;;;18.60;99.90;;;;;;5049835;28;20058;-62
2021/08/20 13:11:52;;;;;;;;;;;18.60;99.90;;;;;;5050253;28;20023;-63
2021/08/20 13:14:18;;;;;;;;;;;18.50;99.10;;;;;;5050352;28;20054;-62
2021/08/20 13:16:43;;;;;;;;;;;18.60;99.90;;;;;;5049941;28;19928;-62
2021/08/20 13:19:09;;;;;;;;;;;18.60;99.90;;;;;;5049834;28;20296;-63
2021/08/20 13:21:34;;;;;;;;;;;18.50;99.90;;;;;;5031881;28;19928;-63
2021/08/20 13:24:00;;;;;;;;;;;18.50;99.20;;;;;;5050044;28;19994;-62
2021/08/20 13:26:25;;;;;;;;;;;18.40;99.50;;;;;;5049574;28;19927;-63
2021/08/20 13:28:51;;;;;;;;;;;18.40;99.50;;;;;;5049286;28;20396;-63
2021/08/20 13:31:16;;;;;;;;;;;18.30;99.90;;;;;;5039709;28;19920;-62
2021/08/20 13:33:42;;;;;;;;;;;18.20;99.90;;;;;;5037913;28;19928;-63
2021/08/20 13:36:07;;;;;;;;;;;18.10;99.90;;;;;;5049450;28;19913;-63
2021/08/20 13:38:33;;;;;;;;;;;18.10;99.90;;;;;;5049394;28;19916;-63
2021/08/20 13:40:59;;;;;;;;;;;18.00;99.90;;;;;;5049815;28;19968;-63
2021/08/20 13:43:26;;;;;;;;;;;18.00;99.90;;;;;;5049890;28;19916;-62
2021/08/20 13:45:52;;;;;;;;;;;17.90;99.90;;;;;;5048767;28;19912;-62
2021/08/20 13:48:18;;;;;;;;;;;17.90;99.90;;;;;;5049241;28;19986;-62
2021/08/20 13:50:44;;;;;;;;;;;17.90;99.90;;;;;;5049037;28;19926;-62
2021/08/20 13:53:12;;;;;;;;;;;18.00;99.90;;;;;;5049382;28;19999;-63
2021/08/20 13:55:39;;;;;;;;;;;18.00;99.90;;;;;;5049460;28;20007;-63
2021/08/20 13:58:05;;;;;;;;;;;18.00;99.90;;;;;;5028942;28;20381;-63
2021/08/20 14:00:31;;;;;;;;;;;18.00;99.90;;;;;;5028423;28;19924;-63
2021/08/20 14:02:56;;;;;;;;;;;18.10;99.90;;;;;;5036682;28;19921;-63
2021/08/20 14:05:22;;;;;;;;;;;18.10;99.90;;;;;;5042199;28;20458;-64
2021/08/20 14:07:47;;;;;;;;;;;18.10;99.90;;;;;;5048618;28;19924;-63
2021/08/20 14:10:13;;;;;;;;;;;18.10;99.90;;;;;;5029414;28;19917;-63